Time;durP1;ratioP1;P1;durP2;ratioP2;P2;SDS_P1;SDS_P2;PMS_P1;PMS_P2;Temp;Humidity;BMP_temperature;BMP_pressure;BME280_temperature;BME280_humidity;BME280_pressure;Samples;Min_cycle;Max_cycle;Signal;HPM_P1;HPM_P2
2023/09/25 00:01:37;;;;;;;56.27;2.30;;;;;;;;;;5155691;27;20514;-71
2023/09/25 00:04:04;;;;;;;56.70;2.50;;;;;;;;;;5155492;27;20448;-71
2023/09/25 00:06:31;;;;;;;56.67;2.50;;;;;;;;;;5155454;27;20448;-70
2023/09/25 00:08:58;;;;;;;56.70;2.30;;;;;;;;;;5155037;27;20444;-70
2023/09/25 00:11:27;;;;;;;57.50;2.83;;;;;;;;;;5155159;27;20444;-70
2023/09/25 00:13:54;;;;;;;59.57;2.60;;;;;;;;;;5155489;27;20482;-69
2023/09/25 00:16:21;;;;;;;56.83;2.57;;;;;;;;;;5155647;27;20447;-72
2023/09/25 00:18:49;;;;;;;57.20;2.50;;;;;;;;;;5154876;27;20992;-70
2023/09/25 00:21:16;;;;;;;56.60;2.43;;;;;;;;;;5155307;27;20439;-70
2023/09/25 00:23:43;;;;;;;56.60;2.40;;;;;;;;;;5154820;27;20440;-71
2023/09/25 00:26:12;;;;;;;57.00;3.03;;;;;;;;;;5155288;27;20431;-71
2023/09/25 00:28:41;;;;;;;56.90;2.83;;;;;;;;;;5154671;27;20498;-71
2023/09/25 00:31:08;;;;;;;57.17;3.10;;;;;;;;;;5155139;27;20470;-71
2023/09/25 00:33:36;;;;;;;56.63;2.40;;;;;;;;;;5154760;27;20484;-71
2023/09/25 00:36:03;;;;;;;56.47;2.50;;;;;;;;;;5155148;27;20446;-71
2023/09/25 00:38:31;;;;;;;56.60;2.37;;;;;;;;;;5154118;27;21004;-71
2023/09/25 00:40:58;;;;;;;56.67;2.40;;;;;;;;;;5155155;27;20488;-71
2023/09/25 00:43:25;;;;;;;57.30;3.03;;;;;;;;;;5154751;27;20440;-70
2023/09/25 00:45:54;;;;;;;56.40;2.53;;;;;;;;;;5154540;27;20454;-70
2023/09/25 00:48:25;;;;;;;56.57;2.60;;;;;;;;;;5154373;27;20842;-70
2023/09/25 00:50:53;;;;;;;58.23;2.90;;;;;;;;;;5154472;27;20467;-70
2023/09/25 00:53:20;;;;;;;56.57;2.40;;;;;;;;;;5154399;27;20481;-71
2023/09/25 00:55:48;;;;;;;56.57;2.60;;;;;;;;;;5154556;27;20483;-70
2023/09/25 00:58:15;;;;;;;56.20;2.37;;;;;;;;;;5154122;27;20460;-70
2023/09/25 01:00:43;;;;;;;56.67;2.70;;;;;;;;;;5154277;27;20953;-70
2023/09/25 01:03:12;;;;;;;57.10;2.50;;;;;;;;;;5154359;27;20440;-70
2023/09/25 01:05:39;;;;;;;56.60;2.30;;;;;;;;;;5153976;27;20470;-71
2023/09/25 01:08:07;;;;;;;56.77;2.50;;;;;;;;;;5153908;27;20474;-70
2023/09/25 01:10:34;;;;;;;56.67;2.40;;;;;;;;;;5154017;27;20455;-71
2023/09/25 01:13:03;;;;;;;56.67;2.80;;;;;;;;;;5154277;27;20483;-71
2023/09/25 01:15:30;;;;;;;56.70;2.47;;;;;;;;;;5154423;27;20444;-71
2023/09/25 01:17:57;;;;;;;56.70;2.57;;;;;;;;;;5153099;27;20971;-72
2023/09/25 01:20:26;;;;;;;56.47;2.30;;;;;;;;;;5154373;27;20447;-71
2023/09/25 01:22:54;;;;;;;57.10;3.07;;;;;;;;;;5125281;27;20854;-71
2023/09/25 01:25:23;;;;;;;56.70;2.20;;;;;;;;;;5132951;27;20441;-71
2023/09/25 01:27:50;;;;;;;56.57;2.20;;;;;;;;;;5132744;27;20775;-71
2023/09/25 01:30:17;;;;;;;58.03;2.60;;;;;;;;;;5133139;27;20819;-71
2023/09/25 01:32:45;;;;;;;56.63;2.30;;;;;;;;;;5133076;27;20483;-71
2023/09/25 01:35:14;;;;;;;56.70;2.40;;;;;;;;;;5132790;27;20445;-71
2023/09/25 01:37:42;;;;;;;56.37;2.20;;;;;;;;;;5132488;27;20467;-71
2023/09/25 01:40:16;;;;;;;57.20;2.70;;;;;;;;;;5133116;27;20533;-71
2023/09/25 01:42:44;;;;;;;57.67;3.10;;;;;;;;;;5132872;27;20472;-71
2023/09/25 01:45:12;;;;;;;56.43;2.27;;;;;;;;;;5132792;27;20441;-71
2023/09/25 01:47:40;;;;;;;56.60;2.20;;;;;;;;;;5132619;27;20479;-71
2023/09/25 01:50:10;;;;;;;56.70;2.17;;;;;;;;;;5131768;27;20460;-71
2023/09/25 01:52:37;;;;;;;57.37;3.07;;;;;;;;;;5132284;27;20484;-70
2023/09/25 01:55:04;;;;;;;56.60;2.40;;;;;;;;;;5132429;27;20444;-70
2023/09/25 01:57:33;;;;;;;56.90;2.43;;;;;;;;;;5132108;27;20468;-71
2023/09/25 02:00:00;;;;;;;57.47;2.70;;;;;;;;;;5132185;27;20559;-70
2023/09/25 02:02:27;;;;;;;56.57;2.47;;;;;;;;;;5132272;27;20445;-70
2023/09/25 02:04:55;;;;;;;56.70;2.40;;;;;;;;;;5132006;27;20437;-70
2023/09/25 02:07:22;;;;;;;56.27;2.40;;;;;;;;;;5132192;27;21016;-70
2023/09/25 02:09:49;;;;;;;56.67;2.30;;;;;;;;;;5131872;27;20933;-70
2023/09/25 02:12:16;;;;;;;56.70;2.30;;;;;;;;;;5132161;27;20451;-71
2023/09/25 02:14:44;;;;;;;56.57;2.57;;;;;;;;;;5132138;27;20954;-70
2023/09/25 02:17:11;;;;;;;56.70;2.40;;;;;;;;;;5131951;27;20461;-70
2023/09/25 02:19:39;;;;;;;56.57;2.40;;;;;;;;;;5131809;27;20536;-70
2023/09/25 02:22:06;;;;;;;56.57;2.50;;;;;;;;;;5131910;27;20457;-70
2023/09/25 02:24:35;;;;;;;56.27;2.37;;;;;;;;;;5132097;27;20437;-70
2023/09/25 02:27:02;;;;;;;56.70;2.30;;;;;;;;;;5131763;27;20473;-71
2023/09/25 02:29:29;;;;;;;57.00;2.73;;;;;;;;;;5131924;27;20445;-70
2023/09/25 02:31:58;;;;;;;56.30;2.53;;;;;;;;;;5131816;27;20877;-71
2023/09/25 02:34:25;;;;;;;56.50;2.40;;;;;;;;;;5132100;27;20484;-71
2023/09/25 02:36:52;;;;;;;56.77;2.60;;;;;;;;;;5131550;27;20929;-71
2023/09/25 02:39:19;;;;;;;56.67;2.40;;;;;;;;;;5131702;27;20795;-71
2023/09/25 02:41:46;;;;;;;58.07;3.33;;;;;;;;;;5131835;27;20440;-71
2023/09/25 02:44:13;;;;;;;56.80;2.70;;;;;;;;;;5131802;27;20437;-71
2023/09/25 02:46:40;;;;;;;56.60;2.43;;;;;;;;;;5131184;27;20440;-71
2023/09/25 02:49:09;;;;;;;56.57;2.70;;;;;;;;;;5131627;27;20497;-71
2023/09/25 02:51:36;;;;;;;56.43;2.47;;;;;;;;;;5131750;27;20812;-71
2023/09/25 02:54:03;;;;;;;56.27;2.40;;;;;;;;;;5131734;27;20507;-71
2023/09/25 02:56:30;;;;;;;58.27;3.50;;;;;;;;;;5131602;27;20448;-71
2023/09/25 02:58:57;;;;;;;56.50;2.50;;;;;;;;;;5131286;27;20467;-71
2023/09/25 03:01:24;;;;;;;56.90;2.70;;;;;;;;;;5132210;27;20445;-70
2023/09/25 03:03:51;;;;;;;56.33;2.20;;;;;;;;;;5134813;27;20436;-71
2023/09/25 03:06:20;;;;;;;56.47;2.40;;;;;;;;;;5136047;27;20445;-71
2023/09/25 03:08:47;;;;;;;56.77;2.40;;;;;;;;;;5135361;27;20470;-71
2023/09/25 03:11:14;;;;;;;55.83;2.37;;;;;;;;;;5135527;27;20451;-71
2023/09/25 03:13:41;;;;;;;56.63;2.30;;;;;;;;;;5135486;27;20486;-71
2023/09/25 03:16:13;;;;;;;56.33;2.60;;;;;;;;;;5135818;27;20449;-71
2023/09/25 03:18:41;;;;;;;56.90;2.60;;;;;;;;;;5135027;27;20545;-71
2023/09/25 03:21:12;;;;;;;57.60;3.30;;;;;;;;;;5135828;27;20440;-71
2023/09/25 03:23:40;;;;;;;56.03;2.60;;;;;;;;;;5135224;27;20948;-71
2023/09/25 03:26:14;;;;;;;56.90;2.73;;;;;;;;;;5135452;27;20441;-71
2023/09/25 03:28:41;;;;;;;56.80;2.80;;;;;;;;;;5134960;27;20469;-71
2023/09/25 03:31:08;;;;;;;56.70;2.60;;;;;;;;;;5135456;27;20820;-70
2023/09/25 03:33:36;;;;;;;56.20;2.40;;;;;;;;;;5134828;27;20853;-70
2023/09/25 03:36:04;;;;;;;56.27;2.67;;;;;;;;;;5135312;27;20441;-70
2023/09/25 03:38:31;;;;;;;56.70;2.80;;;;;;;;;;5134912;27;20869;-70
2023/09/25 03:40:59;;;;;;;56.37;2.47;;;;;;;;;;5126825;27;20437;-71
2023/09/25 03:43:26;;;;;;;56.27;2.53;;;;;;;;;;5134954;27;20441;-70
2023/09/25 03:45:53;;;;;;;56.47;2.70;;;;;;;;;;5135163;27;20433;-70
2023/09/25 03:48:20;;;;;;;56.60;2.60;;;;;;;;;;5134833;27;20467;-71
2023/09/25 03:50:47;;;;;;;56.40;2.20;;;;;;;;;;5134782;27;20459;-71
2023/09/25 03:53:15;;;;;;;56.27;2.60;;;;;;;;;;5134900;27;20480;-70
2023/09/25 03:55:42;;;;;;;57.10;4.17;;;;;;;;;;5134970;27;20537;-70
2023/09/25 03:58:10;;;;;;;56.57;2.50;;;;;;;;;;5134653;27;20465;-70
2023/09/25 04:00:38;;;;;;;55.80;2.40;;;;;;;;;;5134376;27;20921;-70
2023/09/25 04:03:05;;;;;;;56.90;2.60;;;;;;;;;;5134818;27;20459;-69
2023/09/25 04:05:34;;;;;;;55.97;2.30;;;;;;;;;;5134631;27;20535;-70
2023/09/25 04:08:01;;;;;;;56.53;2.50;;;;;;;;;;5134357;27;20471;-70
2023/09/25 04:10:28;;;;;;;56.47;2.10;;;;;;;;;;5134225;27;20441;-70
2023/09/25 04:12:55;;;;;;;57.30;2.30;;;;;;;;;;5133972;27;20441;-70
2023/09/25 04:15:23;;;;;;;56.47;2.27;;;;;;;;;;5134582;27;20441;-70
2023/09/25 04:17:52;;;;;;;55.97;2.20;;;;;;;;;;5134306;27;20468;-69
2023/09/25 04:20:24;;;;;;;56.87;2.73;;;;;;;;;;5134082;27;20509;-70
2023/09/25 04:22:52;;;;;;;56.17;2.33;;;;;;;;;;5134392;27;20460;-70
2023/09/25 04:25:19;;;;;;;61.37;3.13;;;;;;;;;;5134466;27;20448;-70
2023/09/25 04:27:47;;;;;;;56.67;2.70;;;;;;;;;;5133827;27;20469;-70
2023/09/25 04:30:15;;;;;;;57.00;2.73;;;;;;;;;;5134018;27;20531;-71
2023/09/25 04:32:44;;;;;;;56.33;2.60;;;;;;;;;;5134056;27;20449;-70
2023/09/25 04:35:12;;;;;;;56.80;2.33;;;;;;;;;;5133918;27;20491;-70
2023/09/25 04:37:39;;;;;;;56.00;2.47;;;;;;;;;;5133806;27;20464;-70
2023/09/25 04:40:13;;;;;;;56.47;2.70;;;;;;;;;;5133830;27;20929;-70
2023/09/25 04:42:41;;;;;;;56.87;2.90;;;;;;;;;;5133978;27;20444;-69
2023/09/25 04:45:12;;;;;;;56.80;2.60;;;;;;;;;;5133624;27;20846;-70
2023/09/25 04:47:39;;;;;;;56.77;2.73;;;;;;;;;;5133557;27;20464;-70
2023/09/25 04:50:08;;;;;;;56.17;2.60;;;;;;;;;;5133749;27;20453;-69
2023/09/25 04:52:36;;;;;;;56.80;2.73;;;;;;;;;;5133806;27;20445;-70
2023/09/25 04:55:05;;;;;;;56.57;2.50;;;;;;;;;;5125629;27;20485;-70
2023/09/25 04:57:32;;;;;;;56.00;2.70;;;;;;;;;;5133862;27;20498;-70
2023/09/25 05:00:00;;;;;;;56.03;2.50;;;;;;;;;;5133118;27;20463;-70
2023/09/25 05:02:27;;;;;;;56.47;2.40;;;;;;;;;;5133552;27;20459;-70
2023/09/25 05:04:54;;;;;;;56.07;2.93;;;;;;;;;;5133305;27;20444;-70
2023/09/25 05:07:21;;;;;;;56.70;2.70;;;;;;;;;;5133296;27;20472;-70
2023/09/25 05:09:50;;;;;;;56.80;2.50;;;;;;;;;;5133305;27;20199;-71
2023/09/25 05:12:17;;;;;;;56.47;2.80;;;;;;;;;;5133216;27;20449;-70
2023/09/25 05:14:44;;;;;;;56.43;2.33;;;;;;;;;;5133126;27;20484;-70
2023/09/25 05:17:11;;;;;;;56.77;2.27;;;;;;;;;;5133546;27;20468;-71
2023/09/25 05:19:38;;;;;;;58.47;2.70;;;;;;;;;;5133178;27;20449;-71
2023/09/25 05:22:05;;;;;;;56.50;2.80;;;;;;;;;;5133124;27;20449;-71
2023/09/25 05:24:32;;;;;;;56.33;2.40;;;;;;;;;;5132566;27;20940;-70
2023/09/25 05:27:00;;;;;;;56.77;2.40;;;;;;;;;;5132238;27;20452;-70
2023/09/25 05:29:27;;;;;;;56.20;2.20;;;;;;;;;;5132842;27;20948;-70
2023/09/25 05:31:55;;;;;;;56.33;2.70;;;;;;;;;;5132906;27;20970;-70
2023/09/25 05:34:22;;;;;;;56.90;3.00;;;;;;;;;;5132798;27;20476;-70
2023/09/25 05:36:49;;;;;;;58.13;2.80;;;;;;;;;;5132711;27;20884;-69
2023/09/25 05:39:17;;;;;;;56.43;2.60;;;;;;;;;;5133289;27;20447;-70
2023/09/25 05:41:44;;;;;;;56.67;2.70;;;;;;;;;;5132837;27;20932;-71
2023/09/25 05:44:14;;;;;;;56.65;2.95;;;;;;;;;;5132737;27;20443;-70
2023/09/25 05:46:41;;;;;;;56.67;2.60;;;;;;;;;;5132693;27;20269;-71
2023/09/25 05:49:09;;;;;;;56.00;2.90;;;;;;;;;;5132700;27;20456;-71
2023/09/25 05:51:37;;;;;;;55.97;2.60;;;;;;;;;;5132722;27;20447;-70
2023/09/25 05:54:05;;;;;;;56.90;2.90;;;;;;;;;;5132500;27;20483;-71
2023/09/25 05:56:32;;;;;;;55.87;2.70;;;;;;;;;;5132912;27;20199;-71
2023/09/25 05:59:00;;;;;;;57.70;3.17;;;;;;;;;;5132363;27;20895;-71
2023/09/25 06:01:28;;;;;;;56.47;2.80;;;;;;;;;;5132635;27;20441;-69
2023/09/25 06:03:57;;;;;;;56.13;2.80;;;;;;;;;;5132485;27;20445;-70
2023/09/25 06:06:24;;;;;;;60.50;3.43;;;;;;;;;;5132390;27;20455;-71
2023/09/25 06:08:52;;;;;;;55.93;2.70;;;;;;;;;;5131918;27;21024;-70
2023/09/25 06:11:19;;;;;;;56.90;3.30;;;;;;;;;;5132401;27;20782;-70
2023/09/25 06:13:46;;;;;;;55.97;2.50;;;;;;;;;;5132181;27;20451;-70
2023/09/25 06:16:13;;;;;;;57.20;3.10;;;;;;;;;;5132326;27;20467;-70
2023/09/25 06:18:42;;;;;;;56.40;2.50;;;;;;;;;;5131873;27;20460;-70
2023/09/25 06:21:10;;;;;;;56.67;2.77;;;;;;;;;;5132040;27;20440;-71
2023/09/25 06:23:37;;;;;;;58.23;3.10;;;;;;;;;;5132536;27;20540;-71
2023/09/25 06:26:06;;;;;;;58.20;4.10;;;;;;;;;;5132114;27;20464;-71
2023/09/25 06:28:33;;;;;;;56.70;2.73;;;;;;;;;;5131829;27;20525;-71
2023/09/25 06:31:00;;;;;;;56.50;2.60;;;;;;;;;;5131977;27;20452;-70
2023/09/25 06:33:28;;;;;;;56.37;2.43;;;;;;;;;;5131733;27;20444;-71
2023/09/25 06:35:57;;;;;;;57.40;3.20;;;;;;;;;;5131428;27;20488;-70
2023/09/25 06:38:24;;;;;;;56.70;3.00;;;;;;;;;;5131718;27;21136;-71
2023/09/25 06:40:51;;;;;;;56.90;2.90;;;;;;;;;;5132114;27;20789;-71
2023/09/25 06:43:19;;;;;;;56.63;3.03;;;;;;;;;;5131973;27;20448;-72
2023/09/25 06:45:46;;;;;;;56.27;2.40;;;;;;;;;;5131743;27;20440;-72
2023/09/25 06:48:13;;;;;;;56.37;2.50;;;;;;;;;;5131166;27;20460;-70
2023/09/25 06:50:40;;;;;;;56.37;2.50;;;;;;;;;;5131570;27;20443;-70
2023/09/25 06:53:09;;;;;;;56.50;2.50;;;;;;;;;;5123219;28;20437;-71
2023/09/25 06:55:37;;;;;;;56.77;2.97;;;;;;;;;;5131669;27;20491;-71
2023/09/25 06:58:04;;;;;;;56.47;2.60;;;;;;;;;;5131533;27;20555;-71
2023/09/25 07:00:31;;;;;;;56.80;2.40;;;;;;;;;;5131565;27;20441;-71
2023/09/25 07:02:58;;;;;;;56.57;2.50;;;;;;;;;;5131752;27;21161;-71
2023/09/25 07:05:28;;;;;;;57.10;3.10;;;;;;;;;;5131768;27;20443;-71
2023/09/25 07:07:56;;;;;;;56.40;2.53;;;;;;;;;;5131626;27;20995;-71
2023/09/25 07:10:24;;;;;;;57.57;2.70;;;;;;;;;;5131583;27;20448;-70
2023/09/25 07:12:52;;;;;;;56.53;2.20;;;;;;;;;;5131554;27;20828;-71
2023/09/25 07:15:20;;;;;;;56.60;2.50;;;;;;;;;;5131527;27;20984;-70
2023/09/25 07:17:47;;;;;;;56.60;2.50;;;;;;;;;;5131383;27;20475;-70
2023/09/25 07:20:14;;;;;;;56.40;2.47;;;;;;;;;;5131314;27;20448;-70
2023/09/25 07:22:42;;;;;;;56.73;3.20;;;;;;;;;;5131730;27;20540;-71
2023/09/25 07:25:09;;;;;;;56.57;2.60;;;;;;;;;;5131390;27;20955;-70
2023/09/25 07:27:38;;;;;;;56.43;2.30;;;;;;;;;;5131387;27;20513;-70
2023/09/25 07:30:07;;;;;;;56.70;2.50;;;;;;;;;;5131416;27;20444;-70
2023/09/25 07:32:34;;;;;;;56.20;2.27;;;;;;;;;;5131559;27;20482;-70
2023/09/25 07:35:06;;;;;;;56.50;2.60;;;;;;;;;;5131351;27;20495;-70
2023/09/25 07:37:34;;;;;;;56.47;2.40;;;;;;;;;;5131326;27;20543;-70
2023/09/25 07:40:01;;;;;;;56.30;2.30;;;;;;;;;;5131479;27;20437;-70
2023/09/25 07:42:28;;;;;;;56.43;2.40;;;;;;;;;;5131193;27;20448;-71
2023/09/25 07:44:57;;;;;;;56.40;2.20;;;;;;;;;;5131334;27;20440;-70
2023/09/25 07:47:24;;;;;;;57.47;3.00;;;;;;;;;;5131191;27;20461;-70
2023/09/25 07:49:51;;;;;;;56.90;2.60;;;;;;;;;;5133911;27;20449;-70
2023/09/25 07:52:19;;;;;;;56.53;2.47;;;;;;;;;;5135109;27;20445;-71
2023/09/25 07:54:49;;;;;;;56.60;2.77;;;;;;;;;;5134733;27;20483;-70
2023/09/25 07:57:16;;;;;;;56.80;2.70;;;;;;;;;;5134625;27;20497;-70
2023/09/25 07:59:43;;;;;;;56.57;2.50;;;;;;;;;;5135012;27;20441;-71
2023/09/25 08:02:16;;;;;;;56.60;2.57;;;;;;;;;;5126631;27;20444;-70
2023/09/25 08:04:44;;;;;;;57.97;4.50;;;;;;;;;;5134786;27;20441;-70
2023/09/25 08:07:11;;;;;;;56.63;2.63;;;;;;;;;;5126194;27;20521;-70
2023/09/25 08:09:39;;;;;;;59.47;2.77;;;;;;;;;;5134352;27;20868;-70
2023/09/25 08:12:06;;;;;;;56.50;2.30;;;;;;;;;;5134665;27;20440;-70
2023/09/25 08:14:33;;;;;;;56.30;2.30;;;;;;;;;;5134610;27;20855;-70
2023/09/25 08:17:00;;;;;;;56.67;2.30;;;;;;;;;;5134387;27;20475;-70
2023/09/25 08:19:29;;;;;;;56.60;2.40;;;;;;;;;;5134308;27;20926;-70
2023/09/25 08:21:56;;;;;;;56.37;2.30;;;;;;;;;;5134499;27;20675;-70
2023/09/25 08:24:23;;;;;;;56.83;2.50;;;;;;;;;;5134552;27;20445;-70
2023/09/25 08:26:50;;;;;;;56.57;3.00;;;;;;;;;;5134312;27;20445;-72
2023/09/25 08:29:17;;;;;;;56.77;2.73;;;;;;;;;;5134282;27;20441;-71
2023/09/25 08:31:45;;;;;;;56.60;2.40;;;;;;;;;;5134295;27;20448;-71
2023/09/25 08:34:12;;;;;;;56.57;2.60;;;;;;;;;;5134276;27;20437;-71
2023/09/25 08:36:41;;;;;;;57.30;2.60;;;;;;;;;;5133990;27;20441;-70
2023/09/25 08:39:08;;;;;;;56.33;2.40;;;;;;;;;;5133710;27;20445;-71
2023/09/25 08:41:36;;;;;;;56.67;2.60;;;;;;;;;;5134216;27;20829;-71
2023/09/25 08:44:03;;;;;;;56.80;2.67;;;;;;;;;;5134019;27;20445;-71
2023/09/25 08:46:30;;;;;;;56.33;2.50;;;;;;;;;;5133960;27;20510;-70
2023/09/25 08:48:59;;;;;;;56.30;2.37;;;;;;;;;;5133557;27;20985;-71
2023/09/25 08:51:26;;;;;;;56.57;2.77;;;;;;;;;;5133773;27;20945;-71
2023/09/25 08:53:54;;;;;;;56.37;2.60;;;;;;;;;;5133832;27;20437;-70
2023/09/25 08:56:22;;;;;;;56.50;2.57;;;;;;;;;;5133752;27;20487;-70
2023/09/25 08:58:51;;;;;;;56.47;2.40;;;;;;;;;;5133379;27;20854;-71
2023/09/25 09:01:18;;;;;;;56.50;2.27;;;;;;;;;;5133508;27;20464;-71
2023/09/25 09:03:45;;;;;;;56.17;2.13;;;;;;;;;;5133523;27;20478;-71
2023/09/25 09:06:12;;;;;;;56.50;2.40;;;;;;;;;;5133381;27;20441;-69
2023/09/25 09:08:43;;;;;;;56.67;2.73;;;;;;;;;;5133256;27;20465;-70
2023/09/25 09:11:12;;;;;;;56.17;2.30;;;;;;;;;;5133769;27;20789;-70
2023/09/25 09:13:45;;;;;;;56.70;2.80;;;;;;;;;;5133423;27;20812;-70
2023/09/25 09:16:13;;;;;;;56.43;2.40;;;;;;;;;;5132960;27;20480;-69
2023/09/25 09:18:40;;;;;;;56.47;2.43;;;;;;;;;;5133147;27;20465;-70
2023/09/25 09:21:08;;;;;;;56.50;2.20;;;;;;;;;;5133254;27;20449;-69
2023/09/25 09:23:45;;;;;;;56.57;2.20;;;;;;;;;;5133508;27;20493;-69
2023/09/25 09:26:13;;;;;;;56.13;2.30;;;;;;;;;;5133491;27;20440;-69
2023/09/25 09:28:42;;;;;;;56.40;2.40;;;;;;;;;;5132745;27;20501;-69
2023/09/25 09:31:10;;;;;;;56.60;2.23;;;;;;;;;;5133153;27;20445;-69
2023/09/25 09:33:41;;;;;;;56.47;2.13;;;;;;;;;;5133062;27;20453;-69
2023/09/25 09:36:08;;;;;;;56.47;2.30;;;;;;;;;;5152629;27;20570;-70
2023/09/25 09:38:36;;;;;;;56.43;2.20;;;;;;;;;;5153409;27;20460;-70
2023/09/25 09:41:03;;;;;;;57.60;2.57;;;;;;;;;;5153425;27;20483;-70
2023/09/25 09:43:31;;;;;;;56.17;1.87;;;;;;;;;;5153501;27;20835;-70
2023/09/25 09:45:59;;;;;;;57.10;2.70;;;;;;;;;;5153435;27;20448;-70
2023/09/25 09:48:26;;;;;;;56.30;2.00;;;;;;;;;;5153356;27;20474;-70
2023/09/25 09:50:59;;;;;;;56.50;2.00;;;;;;;;;;5153190;27;20467;-70
2023/09/25 09:53:28;;;;;;;55.77;1.90;;;;;;;;;;5153319;27;20524;-70
2023/09/25 09:55:55;;;;;;;55.77;2.10;;;;;;;;;;5152968;27;21106;-70
2023/09/25 09:58:24;;;;;;;56.10;1.90;;;;;;;;;;5152996;27;20467;-70
2023/09/25 10:00:55;;;;;;;56.30;1.90;;;;;;;;;;5153139;27;20480;-70
2023/09/25 10:03:23;;;;;;;55.80;1.70;;;;;;;;;;5153448;27;20470;-70
2023/09/25 10:05:50;;;;;;;55.50;1.70;;;;;;;;;;5153070;27;20500;-70
2023/09/25 10:08:17;;;;;;;55.70;1.80;;;;;;;;;;5152617;27;20452;-70
2023/09/25 10:10:45;;;;;;;55.47;1.53;;;;;;;;;;5152848;27;20440;-70
2023/09/25 10:13:15;;;;;;;55.40;1.77;;;;;;;;;;5152753;27;20443;-69
2023/09/25 10:15:52;;;;;;;55.43;1.63;;;;;;;;;;5153131;27;20486;-68
2023/09/25 10:18:20;;;;;;;55.60;1.60;;;;;;;;;;5153042;27;20463;-69
2023/09/25 10:20:48;;;;;;;55.77;1.63;;;;;;;;;;5152797;27;20451;-70
2023/09/25 10:23:20;;;;;;;55.60;1.93;;;;;;;;;;5152896;27;20440;-69
2023/09/25 10:25:50;;;;;;;55.50;1.70;;;;;;;;;;5153131;27;20467;-70
2023/09/25 10:28:17;;;;;;;55.50;1.70;;;;;;;;;;5152500;27;20463;-70
2023/09/25 10:30:44;;;;;;;55.70;1.70;;;;;;;;;;5152670;27;20440;-70
2023/09/25 10:33:11;;;;;;;55.53;1.80;;;;;;;;;;5152374;27;20472;-70
2023/09/25 10:35:44;;;;;;;55.50;1.63;;;;;;;;;;5152643;27;20487;-69
2023/09/25 10:38:11;;;;;;;55.50;1.70;;;;;;;;;;5152189;27;20468;-69
2023/09/25 10:40:38;;;;;;;55.30;1.70;;;;;;;;;;5152933;27;20452;-71
2023/09/25 10:43:06;;;;;;;55.30;1.50;;;;;;;;;;5152540;27;20444;-70
2023/09/25 10:45:34;;;;;;;55.30;1.80;;;;;;;;;;5152578;27;20483;-69
2023/09/25 10:48:01;;;;;;;55.50;1.80;;;;;;;;;;5152429;27;20520;-69
2023/09/25 10:50:28;;;;;;;55.10;1.77;;;;;;;;;;5152227;27;20459;-67
2023/09/25 10:52:57;;;;;;;55.60;1.60;;;;;;;;;;5152549;27;20440;-69
2023/09/25 10:55:24;;;;;;;55.17;1.60;;;;;;;;;;5152243;27;20540;-68
2023/09/25 10:57:51;;;;;;;54.97;1.70;;;;;;;;;;5152623;27;20459;-69
2023/09/25 11:00:19;;;;;;;55.30;2.00;;;;;;;;;;5151915;27;20459;-69
2023/09/25 11:02:47;;;;;;;55.17;2.00;;;;;;;;;;5152590;27;20448;-69
2023/09/25 11:05:14;;;;;;;54.80;1.50;;;;;;;;;;5152536;27;20447;-69
2023/09/25 11:07:41;;;;;;;54.97;1.50;;;;;;;;;;5152197;27;20463;-69
2023/09/25 11:10:13;;;;;;;55.50;1.60;;;;;;;;;;5151928;27;20454;-69
2023/09/25 11:12:40;;;;;;;55.20;1.90;;;;;;;;;;5152135;27;20454;-68
2023/09/25 11:15:11;;;;;;;55.10;1.70;;;;;;;;;;5151770;27;20444;-69
2023/09/25 11:17:38;;;;;;;55.10;1.60;;;;;;;;;;5151892;27;20474;-69
2023/09/25 11:20:11;;;;;;;55.30;1.80;;;;;;;;;;5151979;27;20448;-69
2023/09/25 11:22:39;;;;;;;55.30;1.50;;;;;;;;;;5152154;27;20452;-69
2023/09/25 11:25:10;;;;;;;55.67;1.90;;;;;;;;;;5138209;27;20444;-70
2023/09/25 11:27:39;;;;;;;55.20;1.50;;;;;;;;;;5134056;27;20689;-69
2023/09/25 11:30:08;;;;;;;54.67;1.50;;;;;;;;;;5134597;27;20451;-68
2023/09/25 11:32:35;;;;;;;55.00;1.67;;;;;;;;;;5134293;27;20445;-70
2023/09/25 11:35:02;;;;;;;55.00;1.70;;;;;;;;;;5135132;27;20452;-69
2023/09/25 11:37:29;;;;;;;55.30;1.60;;;;;;;;;;5135108;27;20496;-69
2023/09/25 11:39:56;;;;;;;54.97;1.50;;;;;;;;;;5134813;27;20449;-68
2023/09/25 11:42:24;;;;;;;54.97;1.60;;;;;;;;;;5135041;27;20451;-69
2023/09/25 11:44:52;;;;;;;54.77;1.60;;;;;;;;;;5135415;27;20472;-69
2023/09/25 11:47:19;;;;;;;55.00;1.60;;;;;;;;;;5134927;27;20457;-70
2023/09/25 11:49:46;;;;;;;55.07;1.50;;;;;;;;;;5128689;27;20877;-68
2023/09/25 11:52:13;;;;;;;55.50;1.77;;;;;;;;;;5128851;27;20432;-69
2023/09/25 11:54:41;;;;;;;55.23;1.60;;;;;;;;;;5134819;27;20463;-69
2023/09/25 11:57:08;;;;;;;55.23;1.80;;;;;;;;;;5134800;27;20541;-71
2023/09/25 11:59:35;;;;;;;55.37;1.70;;;;;;;;;;5134803;27;20444;-70
2023/09/25 12:02:04;;;;;;;55.27;1.50;;;;;;;;;;5134782;27;20471;-70
2023/09/25 12:04:31;;;;;;;55.37;1.60;;;;;;;;;;5134736;27;20449;-68
2023/09/25 12:06:59;;;;;;;55.00;1.70;;;;;;;;;;5134520;27;20457;-68
2023/09/25 12:09:27;;;;;;;55.20;1.70;;;;;;;;;;5134755;27;20437;-70
2023/09/25 12:11:54;;;;;;;54.97;1.60;;;;;;;;;;5134578;27;20449;-69
2023/09/25 12:14:22;;;;;;;55.17;1.70;;;;;;;;;;5134470;27;20440;-69
2023/09/25 12:16:49;;;;;;;54.70;1.67;;;;;;;;;;5134224;27;20480;-69
2023/09/25 12:19:17;;;;;;;54.87;1.60;;;;;;;;;;5134241;27;20448;-69
2023/09/25 12:21:44;;;;;;;55.10;1.80;;;;;;;;;;5134370;27;20451;-69
2023/09/25 12:24:11;;;;;;;55.00;1.63;;;;;;;;;;5134439;27;20940;-69
2023/09/25 12:26:39;;;;;;;54.87;1.60;;;;;;;;;;5134429;27;20544;-69
2023/09/25 12:29:07;;;;;;;54.90;1.70;;;;;;;;;;5134224;27;20445;-69
2023/09/25 12:31:34;;;;;;;55.20;1.60;;;;;;;;;;5134210;27;20451;-69
2023/09/25 12:34:01;;;;;;;55.13;2.17;;;;;;;;;;5133623;27;20440;-69
2023/09/25 12:36:29;;;;;;;54.67;1.43;;;;;;;;;;5134041;27;20480;-69
2023/09/25 12:38:57;;;;;;;54.90;1.60;;;;;;;;;;5133907;27;20496;-69
2023/09/25 12:41:24;;;;;;;54.93;1.70;;;;;;;;;;5125602;27;20445;-70
2023/09/25 12:43:51;;;;;;;55.00;1.53;;;;;;;;;;5134090;27;20441;-69
2023/09/25 12:46:18;;;;;;;54.87;1.50;;;;;;;;;;5133852;27;20436;-70
2023/09/25 12:48:45;;;;;;;55.27;1.63;;;;;;;;;;5133420;27;20472;-70
2023/09/25 12:51:12;;;;;;;54.80;1.53;;;;;;;;;;5133639;27;20453;-69
2023/09/25 12:53:41;;;;;;;54.83;1.60;;;;;;;;;;5134037;27;20452;-70
2023/09/25 12:56:08;;;;;;;54.47;1.60;;;;;;;;;;5133362;27;21082;-70
2023/09/25 12:58:35;;;;;;;54.90;1.60;;;;;;;;;;5133351;27;20464;-69
2023/09/25 13:01:02;;;;;;;54.77;1.83;;;;;;;;;;5133986;27;20451;-68
2023/09/25 13:03:31;;;;;;;54.57;1.50;;;;;;;;;;5133513;27;20472;-69
2023/09/25 13:05:58;;;;;;;54.53;1.40;;;;;;;;;;5133878;27;20451;-70
2023/09/25 13:08:25;;;;;;;54.90;1.60;;;;;;;;;;5133156;27;20476;-70
2023/09/25 13:10:53;;;;;;;54.67;1.50;;;;;;;;;;5133513;27;20594;-69
2023/09/25 13:13:20;;;;;;;54.90;1.83;;;;;;;;;;5133297;27;20457;-70
2023/09/25 13:15:48;;;;;;;54.73;1.70;;;;;;;;;;5133268;27;20521;-70
2023/09/25 13:18:15;;;;;;;55.07;1.73;;;;;;;;;;5132954;27;20465;-70
2023/09/25 13:20:42;;;;;;;54.77;1.63;;;;;;;;;;5133540;27;20794;-70
2023/09/25 13:23:09;;;;;;;54.70;1.73;;;;;;;;;;5133638;27;20448;-70
2023/09/25 13:25:37;;;;;;;54.50;1.40;;;;;;;;;;5133313;27;20440;-69
2023/09/25 13:28:06;;;;;;;55.00;1.87;;;;;;;;;;5132992;27;20919;-69
2023/09/25 13:30:33;;;;;;;54.70;1.87;;;;;;;;;;5132782;27;20447;-69
2023/09/25 13:33:00;;;;;;;54.77;1.63;;;;;;;;;;5133098;27;20447;-69
2023/09/25 13:35:28;;;;;;;54.67;1.40;;;;;;;;;;5133243;27;20433;-70
2023/09/25 13:37:55;;;;;;;54.87;1.50;;;;;;;;;;5132605;27;20468;-69
2023/09/25 13:40:23;;;;;;;54.90;1.53;;;;;;;;;;5132581;27;20951;-69
2023/09/25 13:42:51;;;;;;;55.80;2.00;;;;;;;;;;5132776;27;20441;-69
2023/09/25 13:45:19;;;;;;;55.60;1.70;;;;;;;;;;5132819;27;20448;-69
2023/09/25 13:47:46;;;;;;;55.20;1.50;;;;;;;;;;5132064;27;20493;-68
2023/09/25 13:50:14;;;;;;;55.30;1.50;;;;;;;;;;5132460;27;20504;-69
2023/09/25 13:52:41;;;;;;;55.20;1.53;;;;;;;;;;5132649;27;20544;-69
2023/09/25 13:55:09;;;;;;;54.90;1.67;;;;;;;;;;5132442;27;20437;-68
2023/09/25 13:57:37;;;;;;;55.00;1.50;;;;;;;;;;5132236;27;20471;-70
2023/09/25 14:00:08;;;;;;;54.97;1.70;;;;;;;;;;5132185;27;20540;-69
2023/09/25 14:02:36;;;;;;;55.20;1.57;;;;;;;;;;5132581;27;20445;-69
2023/09/25 14:05:03;;;;;;;55.00;1.63;;;;;;;;;;5132307;27;20542;-69
2023/09/25 14:07:30;;;;;;;55.00;1.57;;;;;;;;;;5132262;27;20489;-69
2023/09/25 14:09:57;;;;;;;54.77;1.40;;;;;;;;;;5132107;27;20445;-69
2023/09/25 14:12:24;;;;;;;54.93;1.60;;;;;;;;;;5132326;27;20924;-69
2023/09/25 14:14:53;;;;;;;54.97;1.43;;;;;;;;;;5132430;27;20449;-70
2023/09/25 14:17:21;;;;;;;55.10;1.60;;;;;;;;;;5132022;27;20510;-70
2023/09/25 14:19:49;;;;;;;54.77;1.80;;;;;;;;;;5131922;27;20452;-69
2023/09/25 14:22:19;;;;;;;55.30;1.80;;;;;;;;;;5132013;27;20445;-70
2023/09/25 14:24:46;;;;;;;55.10;1.57;;;;;;;;;;5131911;27;20445;-69
2023/09/25 14:27:13;;;;;;;55.87;1.70;;;;;;;;;;5131897;27;20495;-69
2023/09/25 14:29:40;;;;;;;55.37;1.80;;;;;;;;;;5131925;27;20445;-68
2023/09/25 14:32:07;;;;;;;55.03;1.67;;;;;;;;;;5131767;27;20460;-70
2023/09/25 14:34:34;;;;;;;55.20;1.50;;;;;;;;;;5131826;27;20444;-69